Time;durP1;ratioP1;P1;durP2;ratioP2;P2;SDS_P1;SDS_P2;PMS_P1;PMS_P2;Temp;Humidity;BMP_temperature;BMP_pressure;BME280_temperature;BME280_humidity;BME280_pressure;Samples;Min_cycle;Max_cycle;Signal;HPM_P1;HPM_P2
2024/03/07 00:05:18;;;;;;;;;;;4.60;99.90;;;;;;21070646;28;19912;-81
2024/03/07 00:15:19;;;;;;;;;;;4.60;99.90;;;;;;21062989;28;19923;-81
2024/03/07 00:25:19;;;;;;;;;;;4.50;99.90;;;;;;21065430;28;19912;-81
2024/03/07 00:35:20;;;;;;;;;;;4.50;99.90;;;;;;21062432;28;19926;-81
2024/03/07 00:45:21;;;;;;;;;;;4.60;99.90;;;;;;21074786;28;19985;-82
2024/03/07 00:55:22;;;;;;;;;;;4.70;99.90;;;;;;21075476;28;19916;-82
2024/03/07 01:05:23;;;;;;;;;;;4.70;99.90;;;;;;21085614;28;19912;-78
2024/03/07 01:15:24;;;;;;;;;;;4.70;99.90;;;;;;21071773;28;19916;-79
2024/03/07 01:25:25;;;;;;;;;;;4.80;99.90;;;;;;21081044;28;19920;-80
2024/03/07 01:35:25;;;;;;;;;;;4.70;99.90;;;;;;21060687;28;19923;-77
2024/03/07 01:45:26;;;;;;;;;;;4.70;99.90;;;;;;21096969;28;19979;-79
2024/03/07 01:55:27;;;;;;;;;;;4.70;99.90;;;;;;21140065;28;19916;-81
2024/03/07 02:05:27;;;;;;;;;;;4.70;99.90;;;;;;21135591;28;19912;-80
2024/03/07 02:15:28;;;;;;;;;;;4.70;99.90;;;;;;21111326;28;20375;-82
2024/03/07 02:25:30;;;;;;;;;;;4.70;99.90;;;;;;21085407;28;19912;-80
2024/03/07 02:35:30;;;;;;;;;;;4.50;99.90;;;;;;21109050;28;19920;-81
2024/03/07 02:45:31;;;;;;;;;;;4.50;99.90;;;;;;21109716;28;19961;-81
2024/03/07 02:55:32;;;;;;;;;;;4.50;99.90;;;;;;21071938;28;19923;-81
2024/03/07 03:05:33;;;;;;;;;;;4.40;99.90;;;;;;21075032;28;19956;-80
2024/03/07 03:15:34;;;;;;;;;;;4.40;99.90;;;;;;21046520;28;19924;-81
2024/03/07 03:25:35;;;;;;;;;;;4.40;99.90;;;;;;21071336;28;20418;-81
2024/03/07 03:35:39;;;;;;;;;;;4.40;99.90;;;;;;21067131;28;19969;-82
2024/03/07 03:45:40;;;;;;;;;;;4.40;99.90;;;;;;21074846;28;19919;-81
2024/03/07 03:55:40;;;;;;;;;;;4.40;99.90;;;;;;21050799;28;19920;-79
2024/03/07 04:05:41;;;;;;;;;;;4.40;99.90;;;;;;21064013;28;19985;-80
2024/03/07 04:15:42;;;;;;;;;;;4.40;99.90;;;;;;21065415;28;19923;-81
2024/03/07 04:25:42;;;;;;;;;;;4.40;99.90;;;;;;21095611;28;19912;-80
2024/03/07 04:35:43;;;;;;;;;;;4.40;99.90;;;;;;21081272;28;19916;-82
2024/03/07 04:45:43;;;;;;;;;;;4.40;99.90;;;;;;21023721;28;19920;-81
2024/03/07 04:55:44;;;;;;;;;;;4.40;99.90;;;;;;21075349;28;20014;-80
2024/03/07 05:05:45;;;;;;;;;;;4.30;99.90;;;;;;21087725;28;19912;-79
2024/03/07 05:15:46;;;;;;;;;;;4.30;99.90;;;;;;21065603;28;19920;-80
2024/03/07 05:25:46;;;;;;;;;;;4.40;99.90;;;;;;21084747;28;20399;-81
2024/03/07 05:35:47;;;;;;;;;;;4.30;99.90;;;;;;21079164;28;20014;-81
2024/03/07 05:45:48;;;;;;;;;;;4.30;99.90;;;;;;21084748;28;19912;-81
2024/03/07 05:55:48;;;;;;;;;;;4.30;99.90;;;;;;21082941;28;20023;-80
2024/03/07 06:05:50;;;;;;;;;;;4.40;99.90;;;;;;21085996;28;19916;-81
2024/03/07 06:15:50;;;;;;;;;;;4.50;99.90;;;;;;21082861;28;20003;-80
2024/03/07 06:25:51;;;;;;;;;;;4.50;99.90;;;;;;21086294;28;19912;-81
2024/03/07 06:35:52;;;;;;;;;;;4.50;99.90;;;;;;21064001;28;20351;-78
2024/03/07 06:45:52;;;;;;;;;;;4.60;99.90;;;;;;21054592;28;19912;-81
2024/03/07 06:55:53;;;;;;;;;;;4.50;99.90;;;;;;21069913;28;19923;-81
2024/03/07 07:05:54;;;;;;;;;;;4.60;99.90;;;;;;21069551;28;19920;-81
2024/03/07 07:15:55;;;;;;;;;;;4.70;99.90;;;;;;21076873;28;19922;-81
2024/03/07 07:25:55;;;;;;;;;;;4.80;99.90;;;;;;21050221;28;19912;-81
2024/03/07 07:35:56;;;;;;;;;;;4.80;99.90;;;;;;21055717;28;20268;-80
2024/03/07 07:45:57;;;;;;;;;;;4.90;99.90;;;;;;21059044;28;19912;-81
2024/03/07 07:55:57;;;;;;;;;;;5.00;99.90;;;;;;21070786;28;20406;-80
2024/03/07 08:05:58;;;;;;;;;;;5.10;99.90;;;;;;21087965;28;19912;-79
2024/03/07 08:15:59;;;;;;;;;;;5.20;99.90;;;;;;21084972;28;19922;-80
2024/03/07 08:26:00;;;;;;;;;;;5.20;99.90;;;;;;21077029;28;19916;-79
2024/03/07 08:36:00;;;;;;;;;;;5.20;99.90;;;;;;21059130;28;19916;-80
2024/03/07 08:46:01;;;;;;;;;;;5.30;99.90;;;;;;21066490;28;20002;-80
2024/03/07 08:56:02;;;;;;;;;;;5.50;99.90;;;;;;21081526;28;20355;-79
2024/03/07 09:06:04;;;;;;;;;;;5.70;99.90;;;;;;21054280;28;20016;-80
2024/03/07 09:16:05;;;;;;;;;;;5.70;99.90;;;;;;21079180;28;19970;-79
2024/03/07 09:26:07;;;;;;;;;;;5.80;99.90;;;;;;21074107;28;19912;-80
2024/03/07 09:36:08;;;;;;;;;;;5.90;99.90;;;;;;21080047;28;20295;-80
2024/03/07 09:46:10;;;;;;;;;;;5.90;99.90;;;;;;21067057;28;20382;-79
2024/03/07 09:56:13;;;;;;;;;;;6.20;99.90;;;;;;21050653;28;20377;-81
2024/03/07 10:06:14;;;;;;;;;;;6.10;99.90;;;;;;21059377;28;19977;-77
2024/03/07 10:16:18;;;;;;;;;;;6.30;99.90;;;;;;21059049;28;20268;-80
2024/03/07 10:26:19;;;;;;;;;;;6.30;99.90;;;;;;21061525;28;19913;-81
2024/03/07 10:36:21;;;;;;;;;;;6.40;99.90;;;;;;21042364;28;20348;-80
2024/03/07 10:46:25;;;;;;;;;;;6.50;99.90;;;;;;21061296;28;21383;-79
2024/03/07 10:56:45;;;;;;;;;;;6.60;99.90;;;;;;21056648;28;19924;-80
2024/03/07 11:06:46;;;;;;;;;;;6.70;99.90;;;;;;21057824;28;19912;-78
2024/03/07 11:16:47;;;;;;;;;;;6.90;99.90;;;;;;21064234;28;19916;-80
2024/03/07 11:26:48;;;;;;;;;;;7.00;99.90;;;;;;21062216;28;19920;-79
2024/03/07 11:36:55;;;;;;;;;;;7.20;99.90;;;;;;21059515;28;19969;-80
2024/03/07 11:46:57;;;;;;;;;;;7.20;99.90;;;;;;21084194;28;19912;-79
2024/03/07 11:56:58;;;;;;;;;;;7.30;99.90;;;;;;21077015;28;19963;-79
2024/03/07 12:07:00;;;;;;;;;;;7.60;99.90;;;;;;21069956;28;19912;-80
2024/03/07 12:17:01;;;;;;;;;;;7.30;99.90;;;;;;21057032;28;19916;-80
2024/03/07 12:27:06;;;;;;;;;;;7.30;99.90;;;;;;21053657;28;19931;-80
2024/03/07 12:37:07;;;;;;;;;;;7.40;99.90;;;;;;21064942;28;19924;-80
2024/03/07 12:47:10;;;;;;;;;;;7.70;99.90;;;;;;21070747;28;19919;-81
2024/03/07 12:57:11;;;;;;;;;;;7.60;99.90;;;;;;21066845;28;20513;-81
2024/03/07 13:07:15;;;;;;;;;;;7.60;99.90;;;;;;21078484;28;19916;-79
2024/03/07 13:17:17;;;;;;;;;;;8.00;99.90;;;;;;21081260;28;19916;-79
2024/03/07 13:27:25;;;;;;;;;;;8.00;99.90;;;;;;21079704;28;19957;-79
2024/03/07 13:37:25;;;;;;;;;;;7.60;99.90;;;;;;21080016;28;19916;-80
2024/03/07 13:47:26;;;;;;;;;;;7.50;99.90;;;;;;21091857;28;19920;-80
2024/03/07 13:57:49;;;;;;;;;;;7.60;99.90;;;;;;21091400;28;19916;-80
2024/03/07 14:08:00;;;;;;;;;;;7.40;99.90;;;;;;21077018;28;19919;-80
2024/03/07 14:18:19;;;;;;;;;;;7.50;99.90;;;;;;21093160;28;19923;-79
2024/03/07 14:28:26;;;;;;;;;;;7.30;99.90;;;;;;21086619;28;19913;-79
2024/03/07 14:38:30;;;;;;;;;;;7.20;99.90;;;;;;21084080;28;20387;-79
2024/03/07 14:48:32;;;;;;;;;;;7.40;99.90;;;;;;21083213;28;19919;-79
2024/03/07 14:58:33;;;;;;;;;;;7.10;99.90;;;;;;21080436;28;20432;-79
2024/03/07 15:08:34;;;;;;;;;;;7.20;99.90;;;;;;21074466;28;20041;-79
2024/03/07 15:18:35;;;;;;;;;;;7.30;99.90;;;;;;21076430;28;19920;-80
2024/03/07 15:28:35;;;;;;;;;;;7.30;99.90;;;;;;21085155;28;19965;-80
2024/03/07 15:38:39;;;;;;;;;;;7.10;99.90;;;;;;21074100;28;19916;-79
2024/03/07 15:48:40;;;;;;;;;;;7.00;99.90;;;;;;21044988;28;19912;-78
2024/03/07 15:58:41;;;;;;;;;;;6.90;99.90;;;;;;21053129;28;19920;-79
2024/03/07 16:08:42;;;;;;;;;;;6.90;99.90;;;;;;21065841;28;20394;-79
2024/03/07 16:18:43;;;;;;;;;;;6.80;99.90;;;;;;21090542;28;19985;-78
2024/03/07 16:28:43;;;;;;;;;;;6.80;99.90;;;;;;21095564;28;19916;-80
2024/03/07 16:38:44;;;;;;;;;;;6.60;99.90;;;;;;21066079;28;20023;-79
2024/03/07 16:48:45;;;;;;;;;;;6.60;99.90;;;;;;21074392;28;20299;-79
2024/03/07 16:58:47;;;;;;;;;;;6.40;99.90;;;;;;21052059;28;19922;-80
2024/03/07 17:08:48;;;;;;;;;;;6.40;99.90;;;;;;21059100;28;19912;-79
2024/03/07 17:18:48;;;;;;;;;;;6.30;99.90;;;;;;21084994;28;19916;-78
2024/03/07 17:28:49;;;;;;;;;;;6.20;99.90;;;;;;21075439;28;19924;-78
2024/03/07 17:38:50;;;;;;;;;;;6.10;99.90;;;;;;21079330;28;19931;-79
2024/03/07 17:48:51;;;;;;;;;;;6.00;99.90;;;;;;21058467;28;19955;-79
2024/03/07 17:58:54;;;;;;;;;;;5.90;99.90;;;;;;21036513;28;20415;-80
2024/03/07 18:08:54;;;;;;;;;;;5.90;99.90;;;;;;21101870;28;19913;-79
2024/03/07 18:18:56;;;;;;;;;;;5.90;99.90;;;;;;21078410;28;19923;-80
2024/03/07 18:28:57;;;;;;;;;;;5.90;99.90;;;;;;21098618;28;19912;-81
2024/03/07 18:38:58;;;;;;;;;;;5.80;99.90;;;;;;21066749;28;19916;-81
2024/03/07 18:48:58;;;;;;;;;;;5.70;99.90;;;;;;21044475;28;19958;-81
2024/03/07 18:59:03;;;;;;;;;;;5.70;99.90;;;;;;21054696;28;19923;-81
2024/03/07 19:09:12;;;;;;;;;;;5.60;99.90;;;;;;21058748;28;19952;-80
2024/03/07 19:19:12;;;;;;;;;;;5.50;99.90;;;;;;21072746;28;20440;-80
2024/03/07 19:29:16;;;;;;;;;;;5.30;99.90;;;;;;21082316;28;19912;-80
2024/03/07 19:39:20;;;;;;;;;;;5.20;99.90;;;;;;21077498;28;20357;-80
2024/03/07 19:49:20;;;;;;;;;;;5.10;99.90;;;;;;21073720;28;19912;-79
2024/03/07 19:59:21;;;;;;;;;;;4.90;99.90;;;;;;21093009;28;19924;-79
2024/03/07 20:09:22;;;;;;;;;;;4.70;99.90;;;;;;21089579;28;20407;-79
2024/03/07 20:19:23;;;;;;;;;;;4.60;99.90;;;;;;21029931;28;19985;-80
2024/03/07 20:29:23;;;;;;;;;;;4.50;99.90;;;;;;21039295;28;19920;-80
2024/03/07 20:39:26;;;;;;;;;;;4.20;99.90;;;;;;21032766;28;19959;-79
2024/03/07 20:49:26;;;;;;;;;;;4.20;99.90;;;;;;21028583;28;19919;-78
2024/03/07 20:59:27;;;;;;;;;;;4.00;99.90;;;;;;21023568;28;20336;-78
2024/03/07 21:09:29;;;;;;;;;;;3.70;99.90;;;;;;21046204;28;20438;-78
2024/03/07 21:19:30;;;;;;;;;;;3.40;99.90;;;;;;21048009;28;19917;-79
2024/03/07 21:29:30;;;;;;;;;;;3.30;99.90;;;;;;21056348;28;19919;-79
2024/03/07 21:39:31;;;;;;;;;;;3.00;99.90;;;;;;21053558;28;19919;-79
2024/03/07 21:49:37;;;;;;;;;;;2.90;99.90;;;;;;21069353;28;19958;-79
2024/03/07 21:59:38;;;;;;;;;;;2.80;99.90;;;;;;21050368;28;20339;-80
2024/03/07 22:09:39;;;;;;;;;;;2.60;99.90;;;;;;21049665;28;19920;-80
2024/03/07 22:19:39;;;;;;;;;;;2.60;99.90;;;;;;21055710;28;19923;-80
2024/03/07 22:29:40;;;;;;;;;;;2.50;99.90;;;;;;21047967;28;19912;-79
2024/03/07 22:39:44;;;;;;;;;;;2.40;99.90;;;;;;21052031;28;20065;-80
2024/03/07 22:49:44;;;;;;;;;;;2.30;99.90;;;;;;21069118;28;19912;-80
2024/03/07 22:59:45;;;;;;;;;;;2.40;99.90;;;;;;21054574;28;20318;-80
2024/03/07 23:09:49;;;;;;;;;;;2.50;99.90;;;;;;21053695;28;19920;-80
2024/03/07 23:19:50;;;;;;;;;;;2.50;99.90;;;;;;21045924;28;19947;-80
2024/03/07 23:29:50;;;;;;;;;;;2.50;99.90;;;;;;21041970;28;19966;-80
2024/03/07 23:39:51;;;;;;;;;;;2.40;99.90;;;;;;21060475;28;20399;-80
2024/03/07 23:49:53;;;;;;;;;;;2.70;99.90;;;;;;21062166;28;19921;-80
2024/03/07 23:59:53;;;;;;;;;;;2.80;99.90;;;;;;21050206;28;19920;-80
